Time;durP1;ratioP1;P1;durP2;ratioP2;P2;SDS_P1;SDS_P2;PMS_P1;PMS_P2;Temp;Humidity;BMP_temperature;BMP_pressure;BME280_temperature;BME280_humidity;BME280_pressure;Samples;Min_cycle;Max_cycle;Signal;HPM_P1;HPM_P2
2022/07/14 00:01:10;;;;;;;1.73;0.80;;;23.20;61.30;;;;;;5011844;28;20269;-77
2022/07/14 00:03:36;;;;;;;0.90;0.80;;;23.20;61.90;;;;;;4995535;28;20200;-75
2022/07/14 00:06:02;;;;;;;0.80;0.57;;;23.20;62.50;;;;;;4976843;28;20283;-75
2022/07/14 00:08:28;;;;;;;2.23;0.60;;;23.20;63.20;;;;;;5010760;28;20206;-76
2022/07/14 00:10:54;;;;;;;0.87;0.60;;;23.20;63.00;;;;;;5010850;28;20425;-76
2022/07/14 00:13:19;;;;;;;1.03;0.60;;;23.20;62.00;;;;;;5010978;28;20187;-75
2022/07/14 00:15:45;;;;;;;2.00;0.60;;;23.20;62.00;;;;;;5011340;28;20204;-76
2022/07/14 00:18:11;;;;;;;1.27;0.70;;;23.10;63.40;;;;;;4978215;28;20200;-76
2022/07/14 00:20:36;;;;;;;1.83;0.80;;;23.10;62.70;;;;;;4993426;28;20200;-75
2022/07/14 00:23:02;;;;;;;0.80;0.50;;;23.20;62.10;;;;;;5010568;28;20272;-76
2022/07/14 00:25:28;;;;;;;1.00;0.63;;;23.20;61.90;;;;;;4992553;28;20431;-76
2022/07/14 00:27:54;;;;;;;5.53;0.87;;;23.20;62.10;;;;;;5009679;28;20207;-76
2022/07/14 00:30:20;;;;;;;1.50;0.93;;;23.20;62.40;;;;;;5010056;28;20778;-76
2022/07/14 00:32:46;;;;;;;0.80;0.60;;;23.10;62.20;;;;;;4992398;28;20501;-76
2022/07/14 00:35:12;;;;;;;1.63;0.70;;;23.10;62.50;;;;;;5010051;28;20895;-76
2022/07/14 00:37:38;;;;;;;1.83;0.70;;;23.10;62.50;;;;;;4993077;28;20450;-77
2022/07/14 00:40:06;;;;;;;1.00;0.60;;;23.10;62.40;;;;;;4977272;28;20487;-78
2022/07/14 00:42:41;;;;;;;2.20;0.60;;;23.10;62.60;;;;;;4992845;28;20618;-77
2022/07/14 00:45:09;;;;;;;1.70;0.77;;;23.10;63.40;;;;;;4993188;28;20439;-77
2022/07/14 00:47:35;;;;;;;2.80;0.70;;;23.00;65.30;;;;;;5010366;28;20670;-77
2022/07/14 00:50:01;;;;;;;2.17;0.60;;;22.90;65.90;;;;;;5010572;28;20506;-77
2022/07/14 00:52:28;;;;;;;0.80;0.67;;;22.90;63.50;;;;;;5010756;28;20509;-77
2022/07/14 00:54:55;;;;;;;1.33;0.80;;;22.90;64.30;;;;;;5010582;28;20636;-76
2022/07/14 00:57:21;;;;;;;1.37;0.60;;;22.90;64.10;;;;;;5009740;28;21256;-76
2022/07/14 00:59:48;;;;;;;1.67;0.67;;;22.90;63.90;;;;;;5009932;28;20427;-76
2022/07/14 01:02:14;;;;;;;1.87;1.00;;;22.90;64.70;;;;;;4992328;28;20664;-76
2022/07/14 01:04:40;;;;;;;1.10;0.73;;;22.90;64.20;;;;;;5010287;28;20433;-76
2022/07/14 01:07:06;;;;;;;3.17;0.60;;;22.90;63.70;;;;;;5010383;28;20813;-76
2022/07/14 01:09:31;;;;;;;1.80;0.60;;;22.90;62.80;;;;;;5009734;28;20228;-76
2022/07/14 01:11:57;;;;;;;3.03;0.80;;;22.90;62.30;;;;;;4992530;28;20238;-76
2022/07/14 01:14:23;;;;;;;1.30;0.70;;;22.90;62.90;;;;;;4992325;28;20198;-77
2022/07/14 01:16:56;;;;;;;1.10;0.80;;;22.90;63.10;;;;;;4992012;28;20224;-77
2022/07/14 01:19:23;;;;;;;3.17;0.80;;;22.90;63.40;;;;;;4992662;28;20187;-77
2022/07/14 01:21:54;;;;;;;2.07;0.60;;;22.80;65.30;;;;;;5009977;28;20437;-76
2022/07/14 01:24:21;;;;;;;4.47;0.60;;;22.70;66.10;;;;;;5009275;28;20571;-76
2022/07/14 01:26:46;;;;;;;1.33;0.73;;;22.60;65.40;;;;;;5008789;28;20454;-75
2022/07/14 01:29:12;;;;;;;1.30;0.73;;;22.50;67.90;;;;;;4974979;28;20854;-74
2022/07/14 01:31:38;;;;;;;4.70;0.90;;;22.30;68.70;;;;;;5008890;28;20320;-75
2022/07/14 01:34:03;;;;;;;1.17;0.80;;;22.20;69.60;;;;;;5008687;28;20188;-74
2022/07/14 01:36:29;;;;;;;1.53;0.70;;;22.10;69.70;;;;;;5008620;28;20214;-74
2022/07/14 01:38:54;;;;;;;3.43;1.00;;;22.00;71.70;;;;;;5008718;28;20207;-74
2022/07/14 01:41:21;;;;;;;3.90;0.80;;;21.90;73.50;;;;;;5009340;28;20268;-78
2022/07/14 01:43:48;;;;;;;2.63;0.80;;;21.80;74.60;;;;;;5015508;28;20199;-79
2022/07/14 01:46:14;;;;;;;0.93;0.83;;;21.70;74.90;;;;;;4986991;28;20505;-78
2022/07/14 01:48:39;;;;;;;2.60;1.00;;;21.60;75.90;;;;;;5002139;28;20470;-78
2022/07/14 01:51:05;;;;;;;1.00;0.60;;;21.40;75.60;;;;;;5000564;28;20210;-77
2022/07/14 01:53:31;;;;;;;1.80;0.80;;;21.40;77.20;;;;;;5016181;28;20182;-78
2022/07/14 01:55:58;;;;;;;2.60;0.90;;;21.20;77.80;;;;;;4996472;28;20655;-75
2022/07/14 01:58:24;;;;;;;6.80;1.10;;;21.10;79.70;;;;;;5013048;28;20190;-75
2022/07/14 02:03:33;;;;;;;2.33;0.60;;;21.10;77.00;;;;;;5014677;28;20415;-77
2022/07/14 02:06:00;;;;;;;1.43;0.87;;;21.10;75.20;;;;;;5014925;28;20447;-78
2022/07/14 02:08:26;;;;;;;4.57;0.77;;;21.00;74.80;;;;;;4997894;28;20229;-78
2022/07/14 02:13:36;;;;;;;1.97;1.00;;;21.20;71.10;;;;;;5012144;28;20486;-76
2022/07/14 02:16:02;;;;;;;1.13;0.70;;;21.20;71.00;;;;;;4993823;28;20896;-76
2022/07/14 02:18:28;;;;;;;1.80;1.30;;;21.30;69.40;;;;;;4993808;28;20268;-75
2022/07/14 02:20:54;;;;;;;5.43;0.90;;;21.20;69.40;;;;;;5011241;28;20519;-76
2022/07/14 02:23:20;;;;;;;0.80;0.60;;;21.30;69.90;;;;;;4998657;28;20268;-78
2022/07/14 02:25:46;;;;;;;1.37;0.70;;;21.30;69.30;;;;;;5014721;28;20507;-77
2022/07/14 02:28:12;;;;;;;3.40;0.60;;;21.30;68.00;;;;;;4996454;28;20502;-77
2022/07/14 02:30:38;;;;;;;7.33;1.00;;;21.40;68.60;;;;;;4980261;28;20185;-78
2022/07/14 02:33:04;;;;;;;1.00;0.70;;;21.30;69.10;;;;;;4979404;28;20777;-75
2022/07/14 02:35:31;;;;;;;1.33;0.70;;;21.30;69.40;;;;;;5011501;28;20432;-75
2022/07/14 02:37:56;;;;;;;6.20;0.70;;;21.30;69.60;;;;;;4993207;28;20531;-75
2022/07/14 02:40:22;;;;;;;2.13;1.10;;;21.20;73.90;;;;;;5011466;28;20974;-77
2022/07/14 02:42:48;;;;;;;1.20;0.73;;;20.80;82.60;;;;;;5012613;28;20644;-78
2022/07/14 02:45:13;;;;;;;1.07;0.70;;;20.70;82.90;;;;;;4979131;28;20217;-78
2022/07/14 02:47:40;;;;;;;2.07;0.80;;;20.60;84.30;;;;;;5015763;28;20233;-79
2022/07/14 02:50:06;;;;;;;2.07;1.23;;;20.40;87.80;;;;;;5014053;28;20493;-77
2022/07/14 02:52:32;;;;;;;1.40;1.00;;;20.20;90.30;;;;;;5012098;28;20190;-78
2022/07/14 02:54:58;;;;;;;1.57;0.87;;;20.00;91.30;;;;;;4994753;28;20897;-77
2022/07/14 02:57:23;;;;;;;1.70;0.90;;;19.90;91.40;;;;;;5011091;28;20252;-75
2022/07/14 02:59:50;;;;;;;1.20;0.93;;;19.90;91.50;;;;;;5010420;28;20192;-75
2022/07/14 03:02:15;;;;;;;1.43;0.90;;;19.80;91.40;;;;;;4993356;28;20189;-74
2022/07/14 03:04:41;;;;;;;1.40;0.90;;;19.80;91.20;;;;;;4992998;28;20949;-75
2022/07/14 03:07:07;;;;;;;1.00;0.67;;;19.80;91.00;;;;;;5010644;28;20212;-74
2022/07/14 03:09:32;;;;;;;1.03;0.80;;;19.70;91.30;;;;;;5010504;28;20248;-76
2022/07/14 03:11:58;;;;;;;1.17;0.83;;;19.70;91.90;;;;;;4992835;28;20192;-76
2022/07/14 03:14:24;;;;;;;1.10;0.70;;;19.60;92.40;;;;;;4992984;28;20212;-74
2022/07/14 03:16:49;;;;;;;1.57;0.93;;;19.50;92.00;;;;;;4992914;28;20926;-75
2022/07/14 03:19:15;;;;;;;1.57;1.10;;;19.30;92.50;;;;;;5010483;28;20193;-75
2022/07/14 03:21:41;;;;;;;3.03;0.83;;;19.20;93.20;;;;;;5010448;28;20189;-75
2022/07/14 03:24:06;;;;;;;0.80;0.80;;;19.10;93.30;;;;;;4992848;28;20609;-75
2022/07/14 03:26:32;;;;;;;3.43;0.90;;;19.20;93.70;;;;;;4992800;28;20400;-76
2022/07/14 03:28:58;;;;;;;1.00;0.73;;;19.10;94.70;;;;;;4992523;28;20252;-74
2022/07/14 03:31:24;;;;;;;0.90;0.70;;;19.00;95.00;;;;;;5010536;28;20209;-74
2022/07/14 03:33:49;;;;;;;2.90;1.10;;;19.00;95.30;;;;;;5010396;28;20236;-74
2022/07/14 03:36:16;;;;;;;1.10;0.80;;;19.00;95.60;;;;;;5010101;28;20506;-75
2022/07/14 03:38:42;;;;;;;1.00;0.90;;;18.80;95.50;;;;;;5010135;28;20623;-75
2022/07/14 03:41:07;;;;;;;9.00;1.20;;;18.70;96.00;;;;;;5010195;28;20443;-75
2022/07/14 03:43:34;;;;;;;6.60;0.83;;;18.60;97.00;;;;;;5010170;28;20200;-75
2022/07/14 03:46:00;;;;;;;3.67;0.90;;;18.60;97.60;;;;;;5010026;28;20553;-75
2022/07/14 03:48:26;;;;;;;0.90;0.80;;;18.60;97.90;;;;;;5010109;28;20577;-75
2022/07/14 03:50:52;;;;;;;1.00;0.83;;;18.50;98.40;;;;;;4992062;28;20611;-75
2022/07/14 03:53:17;;;;;;;2.27;1.10;;;18.40;99.70;;;;;;5009968;28;20198;-75
2022/07/14 03:55:43;;;;;;;1.00;0.90;;;18.30;99.90;;;;;;5010146;28;20219;-75
2022/07/14 03:58:09;;;;;;;6.87;1.20;;;18.30;99.90;;;;;;5010738;28;20200;-76
2022/07/14 04:00:35;;;;;;;2.93;0.87;;;18.30;99.90;;;;;;4991877;28;20200;-76
2022/07/14 04:03:00;;;;;;;2.57;1.00;;;18.20;99.90;;;;;;4991699;28;20309;-76
2022/07/14 04:05:26;;;;;;;2.93;1.23;;;18.20;99.90;;;;;;4992029;28;20193;-77
2022/07/14 04:07:52;;;;;;;2.50;0.70;;;18.20;99.90;;;;;;5019549;28;20199;-78
2022/07/14 04:10:18;;;;;;;5.90;0.90;;;18.20;99.90;;;;;;5003997;28;20192;-78
2022/07/14 04:12:44;;;;;;;2.30;0.80;;;18.10;99.90;;;;;;4987806;28;20186;-78
2022/07/14 04:15:10;;;;;;;0.90;0.73;;;18.10;99.90;;;;;;5022559;28;20462;-78
2022/07/14 04:17:36;;;;;;;2.50;0.83;;;18.20;99.40;;;;;;4988933;28;20452;-78
2022/07/14 04:20:03;;;;;;;3.20;0.93;;;18.30;99.90;;;;;;4989230;28;21131;-78
2022/07/14 04:22:28;;;;;;;4.30;1.10;;;18.40;99.90;;;;;;5005545;28;20191;-78
2022/07/14 04:24:54;;;;;;;10.73;1.67;;;18.60;99.80;;;;;;5005947;28;20431;-78
2022/07/14 04:27:20;;;;;;;2.30;0.77;;;18.60;99.50;;;;;;4987476;28;20235;-79
2022/07/14 04:29:46;;;;;;;1.17;1.07;;;18.70;99.10;;;;;;5004188;28;20217;-79
2022/07/14 04:32:12;;;;;;;3.00;1.20;;;18.80;97.80;;;;;;4987795;28;20258;-78
2022/07/14 04:34:38;;;;;;;1.47;0.60;;;18.80;96.60;;;;;;5024031;28;20448;-79
2022/07/14 04:37:04;;;;;;;3.47;1.70;;;19.00;98.90;;;;;;5023458;28;20440;-78
2022/07/14 04:39:30;;;;;;;1.50;0.90;;;19.10;99.90;;;;;;5005621;28;20460;-78
2022/07/14 04:41:55;;;;;;;0.87;0.80;;;19.30;99.90;;;;;;5005857;28;20292;-78
2022/07/14 04:44:21;;;;;;;2.43;1.27;;;19.50;99.90;;;;;;5006668;28;20193;-78
2022/07/14 04:46:46;;;;;;;3.87;0.70;;;19.60;99.90;;;;;;5010926;28;20216;-78
2022/07/14 04:52:02;;;;;;;2.10;0.73;;;19.70;99.90;;;;;;5014541;28;20221;-78
2022/07/14 04:54:32;;;;;;;2.43;1.13;;;19.70;99.90;;;;;;4997557;28;20408;-78
2022/07/14 04:56:59;;;;;;;2.60;1.20;;;19.60;99.90;;;;;;4994275;28;20527;-78
2022/07/14 04:59:24;;;;;;;1.10;0.90;;;19.60;99.90;;;;;;5013847;28;20443;-79
2022/07/14 05:01:50;;;;;;;4.10;1.20;;;19.50;99.90;;;;;;4979089;28;20806;-78
2022/07/14 05:04:16;;;;;;;1.53;1.03;;;19.50;99.90;;;;;;4995027;28;20223;-78
2022/07/14 05:06:42;;;;;;;3.43;1.40;;;19.40;99.90;;;;;;5012892;28;20243;-78
2022/07/14 05:09:08;;;;;;;1.10;0.80;;;19.40;99.90;;;;;;4994743;28;20227;-78
2022/07/14 05:11:34;;;;;;;1.87;0.90;;;19.50;99.90;;;;;;4979004;28;20491;-79
2022/07/14 05:13:59;;;;;;;2.23;0.93;;;19.60;99.90;;;;;;4997028;28;20736;-78
2022/07/14 05:16:25;;;;;;;2.20;1.40;;;19.60;99.90;;;;;;4996179;28;20209;-78
2022/07/14 05:18:51;;;;;;;1.17;1.03;;;19.70;99.90;;;;;;4981638;28;20223;-78
2022/07/14 05:21:16;;;;;;;1.10;1.00;;;19.60;99.90;;;;;;4980025;28;20470;-79
2022/07/14 05:23:42;;;;;;;5.53;1.10;;;19.60;99.90;;;;;;4999409;28;20192;-78
2022/07/14 05:26:13;;;;;;;5.07;1.03;;;19.60;99.90;;;;;;4985215;28;20231;-78
2022/07/14 05:28:39;;;;;;;2.90;1.10;;;19.60;99.90;;;;;;4999261;28;20274;-78
2022/07/14 05:31:05;;;;;;;2.90;0.87;;;19.60;99.90;;;;;;5016929;28;20435;-78
2022/07/14 05:33:31;;;;;;;0.97;0.83;;;19.60;99.90;;;;;;5000160;28;20476;-78
2022/07/14 05:35:56;;;;;;;2.80;1.00;;;19.80;99.90;;;;;;4981147;28;20962;-78
2022/07/14 05:38:23;;;;;;;2.90;1.33;;;19.90;99.90;;;;;;4982002;28;20190;-78
2022/07/14 05:40:49;;;;;;;2.70;1.00;;;19.90;99.90;;;;;;4980904;28;20671;-78
2022/07/14 05:43:15;;;;;;;7.53;1.40;;;20.00;99.90;;;;;;4980401;28;21048;-78
2022/07/14 05:45:41;;;;;;;1.20;0.90;;;20.20;99.90;;;;;;5013489;28;20457;-78
2022/07/14 05:48:07;;;;;;;2.17;1.30;;;20.30;99.90;;;;;;5012548;28;20686;-78
2022/07/14 05:50:32;;;;;;;1.93;1.00;;;20.50;99.90;;;;;;4994451;28;20542;-78
2022/07/14 05:52:58;;;;;;;1.97;1.30;;;20.60;99.90;;;;;;5019914;28;20185;-79
2022/07/14 05:55:24;;;;;;;2.97;1.07;;;20.80;99.90;;;;;;5002720;28;20185;-78
2022/07/14 05:57:51;;;;;;;3.17;1.20;;;20.90;99.90;;;;;;5001973;28;20285;-78
2022/07/14 06:00:17;;;;;;;2.20;1.30;;;21.00;99.90;;;;;;5019813;28;20414;-78
2022/07/14 06:02:43;;;;;;;0.80;0.70;;;21.10;99.90;;;;;;5020425;28;20462;-79
2022/07/14 06:05:10;;;;;;;7.93;1.30;;;21.30;99.90;;;;;;5020599;28;20458;-78
2022/07/14 06:07:36;;;;;;;8.60;1.23;;;21.40;99.90;;;;;;5001609;28;20212;-78
2022/07/14 06:10:02;;;;;;;2.67;1.43;;;21.50;99.90;;;;;;5020691;28;20474;-78
2022/07/14 06:12:28;;;;;;;2.50;1.53;;;21.60;99.90;;;;;;5003898;28;20444;-78
2022/07/14 06:14:54;;;;;;;1.73;0.93;;;21.80;99.90;;;;;;5021773;28;20788;-78
2022/07/14 06:17:20;;;;;;;2.07;1.10;;;22.00;98.10;;;;;;5003773;28;20573;-79
2022/07/14 06:19:45;;;;;;;5.97;1.37;;;22.10;99.90;;;;;;5003371;28;20204;-79
2022/07/14 06:22:11;;;;;;;3.40;1.30;;;22.20;99.90;;;;;;5003869;28;20294;-79
2022/07/14 06:24:41;;;;;;;2.60;1.37;;;22.20;99.90;;;;;;5002772;28;20246;-78
2022/07/14 06:27:07;;;;;;;2.53;1.00;;;22.40;99.90;;;;;;5004069;28;20213;-79
2022/07/14 06:29:33;;;;;;;4.07;0.90;;;22.50;98.70;;;;;;5026079;28;20478;-78
2022/07/14 06:31:59;;;;;;;4.10;1.60;;;22.50;99.90;;;;;;5027515;28;21007;-79
2022/07/14 06:34:25;;;;;;;1.97;1.40;;;22.60;99.90;;;;;;4995210;28;20219;-78
2022/07/14 06:36:51;;;;;;;2.00;1.07;;;22.90;99.90;;;;;;5013365;28;20447;-78
2022/07/14 06:39:17;;;;;;;2.13;1.10;;;23.10;97.60;;;;;;5030430;28;20446;-79
2022/07/14 06:41:42;;;;;;;1.47;0.93;;;23.30;96.00;;;;;;5002470;28;20980;-79
2022/07/14 06:44:08;;;;;;;3.90;1.57;;;23.50;97.80;;;;;;4982465;28;20203;-78
2022/07/14 06:46:34;;;;;;;4.70;1.30;;;23.50;97.10;;;;;;5016327;28;20225;-78
2022/07/14 06:49:00;;;;;;;2.10;1.20;;;23.50;96.60;;;;;;4981138;28;20218;-78
2022/07/14 06:51:26;;;;;;;3.73;1.50;;;23.60;97.40;;;;;;4997592;28;20191;-78
2022/07/14 06:53:52;;;;;;;1.50;1.10;;;23.60;96.20;;;;;;4997583;28;20414;-78
2022/07/14 06:56:18;;;;;;;1.97;1.63;;;23.80;95.20;;;;;;4997854;28;20442;-78
2022/07/14 06:58:44;;;;;;;1.47;1.30;;;23.80;94.20;;;;;;4998337;28;20487;-78
2022/07/14 07:01:09;;;;;;;1.30;1.20;;;23.90;94.50;;;;;;5004995;28;20430;-78
2022/07/14 07:03:36;;;;;;;4.40;1.20;;;23.90;95.30;;;;;;5004168;28;20195;-78
2022/07/14 07:08:46;;;;;;;4.40;1.07;;;24.20;96.50;;;;;;5019753;28;20478;-78
2022/07/14 07:11:12;;;;;;;1.33;0.87;;;24.20;94.80;;;;;;5003398;28;20443;-78
2022/07/14 07:13:37;;;;;;;8.33;1.43;;;24.20;96.50;;;;;;5021629;28;20188;-78
2022/07/14 07:16:07;;;;;;;2.97;1.23;;;24.20;94.70;;;;;;5022106;28;20500;-78
2022/07/14 07:18:34;;;;;;;0.97;0.80;;;24.30;96.30;;;;;;5021634;28;20192;-78
2022/07/14 07:21:00;;;;;;;6.83;0.93;;;24.40;94.70;;;;;;5004165;28;20429;-78
2022/07/14 07:23:26;;;;;;;5.37;0.93;;;24.50;94.80;;;;;;5003468;28;20960;-78
2022/07/14 07:25:52;;;;;;;2.40;1.13;;;24.70;94.80;;;;;;5023204;28;20211;-78
2022/07/14 07:28:18;;;;;;;4.80;1.00;;;24.70;92.50;;;;;;4988742;28;20216;-78
2022/07/14 07:30:43;;;;;;;2.17;0.60;;;24.60;95.70;;;;;;5022218;28;20462;-78
2022/07/14 07:33:09;;;;;;;3.33;1.27;;;24.60;95.10;;;;;;5005249;28;20181;-78
2022/07/14 07:35:35;;;;;;;2.40;1.00;;;24.60;94.80;;;;;;5023121;28;20188;-78
2022/07/14 07:38:01;;;;;;;8.83;1.10;;;24.70;96.60;;;;;;5006356;28;20186;-78
2022/07/14 07:40:27;;;;;;;2.70;1.00;;;24.70;95.90;;;;;;5004219;28;20447;-78
2022/07/14 07:42:52;;;;;;;5.47;1.43;;;24.60;97.10;;;;;;4995766;28;20231;-78
2022/07/14 07:45:18;;;;;;;4.20;1.40;;;24.70;97.80;;;;;;4994634;28;20216;-78
2022/07/14 07:47:44;;;;;;;5.10;1.33;;;24.70;95.30;;;;;;5008999;28;20286;-78
2022/07/14 07:50:10;;;;;;;3.70;1.20;;;24.80;96.40;;;;;;5010552;28;20221;-78
2022/07/14 07:52:37;;;;;;;4.40;1.30;;;24.80;96.20;;;;;;5000951;28;20723;-78
2022/07/14 07:55:09;;;;;;;4.40;1.23;;;25.10;95.90;;;;;;4985136;28;20434;-79
2022/07/14 07:57:36;;;;;;;1.77;1.20;;;25.20;95.30;;;;;;5000192;28;20452;-78
2022/07/14 08:00:04;;;;;;;1.60;1.40;;;25.40;94.30;;;;;;5017607;28;20428;-78
2022/07/14 08:02:30;;;;;;;1.50;1.40;;;25.50;96.40;;;;;;5001422;28;20925;-78
2022/07/14 08:04:56;;;;;;;1.33;1.23;;;25.60;96.90;;;;;;5019192;28;20458;-78
2022/07/14 08:07:21;;;;;;;2.90;1.40;;;25.70;96.00;;;;;;5001510;28;20674;-78
2022/07/14 08:09:47;;;;;;;7.13;1.50;;;25.70;98.00;;;;;;4984460;28;20701;-79
2022/07/14 08:12:13;;;;;;;4.30;1.30;;;25.70;95.40;;;;;;5018121;28;20188;-78
2022/07/14 08:14:51;;;;;;;2.20;1.30;;;25.70;97.20;;;;;;5000637;28;20603;-78
2022/07/14 08:17:19;;;;;;;1.30;1.20;;;25.80;95.50;;;;;;5000633;28;20252;-78
2022/07/14 08:19:45;;;;;;;4.10;1.67;;;25.80;96.00;;;;;;5000594;28;20466;-79
2022/07/14 08:22:11;;;;;;;4.93;1.03;;;25.80;96.70;;;;;;5000559;28;20436;-78
2022/07/14 08:24:37;;;;;;;2.60;1.40;;;25.80;93.20;;;;;;5000687;28;20435;-78
2022/07/14 08:27:03;;;;;;;1.57;1.20;;;26.00;93.10;;;;;;5000623;28;20220;-78
2022/07/14 08:29:28;;;;;;;2.17;1.10;;;26.20;92.60;;;;;;5001152;28;20219;-79
2022/07/14 08:31:54;;;;;;;1.73;1.00;;;26.50;92.50;;;;;;5000602;28;20181;-78
2022/07/14 08:34:20;;;;;;;1.00;0.90;;;26.70;94.00;;;;;;4999686;28;20181;-78
2022/07/14 08:36:45;;;;;;;1.57;1.20;;;26.90;91.10;;;;;;4999610;28;20210;-79
2022/07/14 08:39:11;;;;;;;3.53;1.30;;;27.10;92.30;;;;;;5017073;28;20545;-78
2022/07/14 08:41:37;;;;;;;1.93;1.20;;;27.30;91.10;;;;;;4998825;28;20681;-78
2022/07/14 08:44:04;;;;;;;1.73;1.20;;;27.60;90.90;;;;;;4982526;28;20216;-79
2022/07/14 08:46:31;;;;;;;6.13;1.20;;;27.70;91.80;;;;;;4998456;28;20913;-79
2022/07/14 08:48:58;;;;;;;11.23;1.23;;;27.90;81.50;;;;;;5013964;28;20509;-79
2022/07/14 08:51:24;;;;;;;1.37;0.80;;;28.10;78.50;;;;;;5008599;28;20416;-78
2022/07/14 08:53:50;;;;;;;2.80;1.30;;;28.30;67.30;;;;;;4974404;28;20428;-78
2022/07/14 08:56:16;;;;;;;2.50;1.07;;;28.50;76.00;;;;;;5008492;28;21301;-78
2022/07/14 08:58:44;;;;;;;1.53;1.17;;;28.70;72.40;;;;;;4990736;28;20514;-78
2022/07/14 09:01:10;;;;;;;2.70;1.00;;;28.80;70.70;;;;;;5008294;28;20219;-78
2022/07/14 09:03:36;;;;;;;1.80;1.00;;;28.90;67.50;;;;;;5008561;28;20470;-79
2022/07/14 09:06:06;;;;;;;1.20;0.77;;;29.00;63.40;;;;;;4990549;28;20451;-79
2022/07/14 09:08:54;;;;;;;4.67;1.43;;;29.20;66.50;;;;;;4990449;28;20216;-78
2022/07/14 09:11:20;;;;;;;3.90;0.70;;;29.40;64.60;;;;;;5008459;28;20423;-79
2022/07/14 09:13:46;;;;;;;3.43;1.00;;;29.70;66.10;;;;;;5008661;28;20641;-78
2022/07/14 09:16:24;;;;;;;8.63;0.93;;;30.00;64.30;;;;;;5008140;28;20436;-78
2022/07/14 09:19:10;;;;;;;2.30;1.13;;;30.20;63.90;;;;;;4990114;28;20185;-79
2022/07/14 09:21:38;;;;;;;1.10;0.87;;;30.40;61.50;;;;;;5007870;28;20555;-78
2022/07/14 09:24:08;;;;;;;5.70;1.20;;;30.50;61.80;;;;;;5008326;28;20428;-78
2022/07/14 09:26:42;;;;;;;5.70;1.00;;;30.50;62.00;;;;;;4973735;28;20547;-78
2022/07/14 09:29:09;;;;;;;2.30;0.90;;;30.40;61.90;;;;;;4989316;28;20597;-78
2022/07/14 09:31:35;;;;;;;3.03;1.50;;;30.30;59.60;;;;;;4989790;28;20425;-78
2022/07/14 09:34:06;;;;;;;2.90;1.00;;;30.30;62.00;;;;;;4973621;28;20431;-78
2022/07/14 09:36:34;;;;;;;2.43;1.13;;;30.30;60.20;;;;;;5007287;28;20741;-78
2022/07/14 09:39:07;;;;;;;1.33;1.00;;;30.40;60.00;;;;;;4989140;28;20475;-77
2022/07/14 09:41:51;;;;;;;2.70;1.40;;;30.50;59.20;;;;;;4989307;28;20435;-78
2022/07/14 09:44:18;;;;;;;1.40;1.30;;;30.50;57.90;;;;;;5007236;28;20428;-78
2022/07/14 09:46:45;;;;;;;2.50;1.13;;;30.50;58.70;;;;;;4989088;28;20448;-78
2022/07/14 09:49:12;;;;;;;2.73;1.53;;;30.50;60.40;;;;;;4989979;28;20459;-78
2022/07/14 09:51:59;;;;;;;2.47;1.60;;;30.70;59.40;;;;;;5007929;28;20906;-78
2022/07/14 09:54:37;;;;;;;2.03;1.40;;;30.80;60.60;;;;;;4991675;28;20430;-78
2022/07/14 09:57:19;;;;;;;2.50;1.30;;;31.00;60.00;;;;;;5007876;28;20467;-78
2022/07/14 09:59:57;;;;;;;3.43;1.27;;;31.20;57.40;;;;;;5007508;28;20507;-78
2022/07/14 10:02:28;;;;;;;3.07;1.00;;;31.20;57.50;;;;;;5011691;28;20424;-78
2022/07/14 10:05:01;;;;;;;1.20;1.00;;;31.40;62.20;;;;;;4991100;28;20456;-78
2022/07/14 10:07:29;;;;;;;3.47;1.50;;;31.50;58.30;;;;;;4990662;28;20455;-78
2022/07/14 10:10:04;;;;;;;1.50;1.40;;;31.60;57.80;;;;;;5008738;28;20473;-78
2022/07/14 10:12:30;;;;;;;5.83;1.20;;;31.80;56.00;;;;;;5011351;28;20422;-78
2022/07/14 10:15:00;;;;;;;1.67;1.13;;;31.70;52.60;;;;;;5011501;28;20451;-78
2022/07/14 10:17:28;;;;;;;6.03;1.40;;;31.70;54.40;;;;;;4994433;28;20439;-79
2022/07/14 10:19:54;;;;;;;1.37;1.27;;;31.70;55.80;;;;;;4993523;28;20447;-79
2022/07/14 10:22:20;;;;;;;2.20;1.00;;;31.80;53.70;;;;;;5010706;28;20431;-78
2022/07/14 10:24:49;;;;;;;1.90;1.17;;;31.90;53.10;;;;;;4992702;28;20972;-78
2022/07/14 10:27:19;;;;;;;3.23;1.17;;;31.90;54.90;;;;;;5010252;28;20440;-78
2022/07/14 10:29:53;;;;;;;2.00;1.13;;;32.10;53.10;;;;;;5009963;28;20461;-78
2022/07/14 10:32:37;;;;;;;3.53;1.40;;;32.20;54.50;;;;;;5009974;28;20434;-78
2022/07/14 10:35:13;;;;;;;1.40;1.20;;;32.40;53.90;;;;;;5010160;28;20412;-78
2022/07/14 10:37:51;;;;;;;2.30;1.00;;;32.50;55.60;;;;;;4992251;28;20447;-78
2022/07/14 10:40:36;;;;;;;1.93;1.00;;;32.50;53.30;;;;;;5009800;28;20420;-78
2022/07/14 10:43:09;;;;;;;4.20;1.40;;;32.50;50.90;;;;;;5009743;28;20506;-78
2022/07/14 10:45:34;;;;;;;2.60;1.00;;;32.60;52.20;;;;;;5009555;28;20419;-78
2022/07/14 10:48:00;;;;;;;2.90;1.10;;;32.70;50.10;;;;;;5009730;28;20416;-77
2022/07/14 10:50:30;;;;;;;3.17;1.23;;;32.70;49.80;;;;;;4991881;28;20189;-78
2022/07/14 10:52:57;;;;;;;2.47;1.20;;;32.90;50.60;;;;;;4992332;28;20231;-78
2022/07/14 10:55:29;;;;;;;4.03;1.40;;;33.00;49.90;;;;;;4992319;28;20460;-78
2022/07/14 10:58:00;;;;;;;4.33;1.17;;;33.00;48.60;;;;;;5010617;28;21343;-78
2022/07/14 11:00:44;;;;;;;2.47;1.20;;;33.10;45.70;;;;;;4992175;28;20507;-78
2022/07/14 11:03:33;;;;;;;1.30;1.20;;;33.30;48.30;;;;;;5010105;28;20988;-78
2022/07/14 11:06:08;;;;;;;4.70;1.07;;;33.30;48.50;;;;;;5008330;28;20440;-78
2022/07/14 11:08:41;;;;;;;0.97;0.90;;;33.30;46.50;;;;;;4992216;28;21013;-78
2022/07/14 11:11:17;;;;;;;1.50;1.17;;;33.40;45.40;;;;;;4992785;28;20424;-78
2022/07/14 11:14:05;;;;;;;2.70;1.00;;;33.30;46.40;;;;;;4992310;28;20762;-78
2022/07/14 11:16:52;;;;;;;3.60;1.30;;;33.40;44.90;;;;;;4991466;28;20897;-77
2022/07/14 11:19:24;;;;;;;4.10;1.27;;;33.20;44.30;;;;;;5009826;28;21084;-77
2022/07/14 11:22:19;;;;;;;2.20;1.33;;;33.20;44.30;;;;;;4991434;28;20428;-78
2022/07/14 11:25:00;;;;;;;4.70;1.30;;;33.20;43.90;;;;;;5010514;28;20431;-77
2022/07/14 11:27:41;;;;;;;1.30;1.20;;;33.30;42.70;;;;;;5010287;28;20503;-77
2022/07/14 11:30:16;;;;;;;1.73;1.13;;;33.40;43.60;;;;;;5009255;28;20837;-77
2022/07/14 11:32:42;;;;;;;2.47;1.30;;;33.50;40.40;;;;;;4991373;28;20427;-77
2022/07/14 11:38:19;;;;;;;1.33;1.10;;;33.70;40.50;;;;;;5011175;28;21027;-77
2022/07/14 11:40:54;;;;;;;1.63;1.10;;;33.80;41.00;;;;;;5008911;28;20470;-77
2022/07/14 11:43:29;;;;;;;5.53;1.07;;;33.90;41.20;;;;;;5009015;28;20430;-77
2022/07/14 11:46:30;;;;;;;4.60;1.23;;;33.90;40.30;;;;;;5008880;28;20431;-77
2022/07/14 11:48:55;;;;;;;7.60;1.00;;;34.00;43.10;;;;;;4937688;28;20471;-77
2022/07/14 11:51:27;;;;;;;3.43;0.90;;;34.20;39.10;;;;;;4990961;28;20800;-77
2022/07/14 11:54:00;;;;;;;1.33;1.00;;;34.30;40.10;;;;;;5009541;28;20176;-77
2022/07/14 11:56:28;;;;;;;1.43;0.80;;;34.40;39.30;;;;;;5008728;28;20460;-77
2022/07/14 11:58:58;;;;;;;2.30;1.00;;;34.50;40.10;;;;;;5009062;28;20435;-77
2022/07/14 12:01:30;;;;;;;2.73;1.10;;;34.50;41.80;;;;;;4990635;28;20432;-77
2022/07/14 12:04:05;;;;;;;1.73;1.10;;;34.60;41.10;;;;;;5009255;28;20451;-77
2022/07/14 12:06:31;;;;;;;3.27;1.00;;;34.70;38.00;;;;;;5008803;28;21209;-77
2022/07/14 12:08:57;;;;;;;6.20;1.67;;;34.60;37.70;;;;;;5008729;28;20494;-77
2022/07/14 12:11:22;;;;;;;1.27;0.93;;;34.60;39.30;;;;;;5009102;28;20177;-77
2022/07/14 12:13:50;;;;;;;3.20;0.93;;;34.50;37.70;;;;;;4990853;28;20189;-77
2022/07/14 12:16:16;;;;;;;3.03;1.07;;;34.70;38.20;;;;;;4990871;28;20267;-77
2022/07/14 12:18:42;;;;;;;3.43;1.07;;;34.70;36.40;;;;;;4990975;28;20432;-77
2022/07/14 12:21:09;;;;;;;1.13;0.97;;;34.70;39.30;;;;;;5008937;28;20747;-77
2022/07/14 12:23:35;;;;;;;2.13;1.17;;;34.70;37.10;;;;;;5008787;28;20474;-77
2022/07/14 12:26:02;;;;;;;2.63;1.03;;;34.70;37.80;;;;;;4991322;28;20451;-77
2022/07/14 12:28:28;;;;;;;2.63;1.33;;;34.80;36.90;;;;;;4991624;28;20459;-77
2022/07/14 12:30:58;;;;;;;1.20;1.00;;;34.80;39.50;;;;;;5009933;28;20413;-77
2022/07/14 12:33:39;;;;;;;4.93;1.30;;;34.80;40.30;;;;;;4990290;28;20432;-77
2022/07/14 12:36:12;;;;;;;1.10;0.90;;;34.70;38.00;;;;;;4990845;28;20439;-77
2022/07/14 12:38:39;;;;;;;1.47;1.20;;;34.80;37.20;;;;;;4990829;28;21015;-77
2022/07/14 12:41:06;;;;;;;1.40;1.30;;;34.80;38.60;;;;;;5009118;28;20478;-77
2022/07/14 12:43:38;;;;;;;2.10;1.03;;;34.80;39.70;;;;;;4991114;28;20431;-77
2022/07/14 12:46:03;;;;;;;3.57;1.23;;;34.90;37.40;;;;;;4991046;28;20471;-77
2022/07/14 12:48:55;;;;;;;1.17;1.07;;;34.90;37.70;;;;;;5008523;28;20475;-76
2022/07/14 12:51:25;;;;;;;1.23;1.13;;;35.00;37.40;;;;;;4993457;28;20189;-77
2022/07/14 12:54:04;;;;;;;3.53;1.00;;;35.00;39.20;;;;;;4989888;28;20425;-77
2022/07/14 12:56:33;;;;;;;2.10;1.30;;;34.80;39.00;;;;;;4989473;28;20481;-77
2022/07/14 12:59:02;;;;;;;1.00;0.90;;;34.80;37.50;;;;;;4989854;28;20917;-77
2022/07/14 13:01:28;;;;;;;10.57;1.70;;;34.70;36.60;;;;;;5007441;28;20459;-77
2022/07/14 13:03:59;;;;;;;1.37;1.13;;;34.70;35.50;;;;;;5007615;28;20440;-77